createdAt,value
2022-12-20T00:12:26.687Z,14.919
2022-12-20T00:27:28.518Z,15.27
2022-12-20T00:42:30.368Z,15.506
2022-12-20T00:57:32.215Z,14.604
2022-12-20T01:12:34.075Z,15.075
2022-12-20T01:27:35.919Z,15.335
2022-12-20T01:42:37.781Z,14.863
2022-12-20T01:57:39.621Z,15.039
2022-12-20T02:12:41.477Z,16.196
2022-12-20T02:27:43.355Z,16.569
2022-12-20T02:42:45.222Z,15.716
2022-12-20T02:57:47.101Z,15.089
2022-12-20T03:12:48.963Z,15.579
2022-12-20T03:27:50.793Z,14.791
2022-12-20T03:42:52.623Z,14.47
2022-12-20T03:57:54.444Z,14.195
2022-12-20T04:12:56.276Z,14.423
2022-12-20T04:27:58.118Z,15.02
2022-12-20T04:42:59.982Z,13.985
2022-12-20T04:58:07.208Z,14.475
2022-12-20T05:13:09.699Z,13.493
2022-12-20T05:28:11.524Z,16.216
2022-12-20T05:43:13.380Z,16.128
2022-12-20T05:58:15.234Z,14.212
2022-12-20T06:13:17.146Z,15.16
2022-12-20T06:28:19.024Z,14.396
2022-12-20T06:43:20.903Z,15.403
2022-12-20T06:58:22.820Z,15.197
2022-12-20T07:13:24.663Z,14.336
2022-12-20T07:28:27.949Z,14.243
2022-12-20T07:43:29.795Z,14.469
2022-12-20T07:58:31.658Z,14.459
2022-12-20T08:13:33.502Z,13.929
2022-12-20T08:28:35.353Z,14.453
2022-12-20T08:43:37.220Z,12.448
2022-12-20T08:58:39.083Z,15.287
2022-12-20T09:13:44.141Z,14.761
2022-12-20T09:28:46.460Z,14.599
2022-12-20T09:43:48.449Z,14.45
2022-12-20T09:58:50.245Z,14.2
2022-12-20T10:13:52.120Z,14.593
2022-12-20T10:28:54.627Z,14.528
2022-12-20T10:43:56.708Z,14.646
2022-12-20T10:58:58.575Z,14.92
2022-12-20T11:14:00.407Z,14.654
2022-12-20T11:29:02.290Z,15.015
2022-12-20T11:44:25.899Z,14.875
2022-12-20T11:59:28.752Z,14.7
2022-12-20T12:14:30.669Z,14.259
2022-12-20T12:29:32.579Z,14.04
2022-12-20T12:44:34.532Z,15.549
2022-12-20T12:59:36.447Z,14.624
2022-12-20T13:14:38.345Z,15.054
2022-12-20T13:29:40.240Z,14.725
2022-12-20T13:44:42.188Z,14.742
2022-12-20T13:59:44.135Z,15.101
2022-12-20T14:14:46.064Z,15.389
2022-12-20T14:29:47.995Z,15.66
2022-12-20T14:44:49.905Z,16.378
2022-12-20T14:59:51.821Z,16.142
2022-12-20T15:14:53.800Z,16.3
2022-12-20T15:29:55.780Z,16.317
2022-12-20T15:44:57.757Z,16.774
2022-12-20T16:00:02.216Z,16.693
2022-12-20T16:15:05.300Z,16.631
2022-12-20T16:30:07.210Z,17.245
2022-12-20T16:45:09.118Z,16.962
2022-12-20T17:00:11.017Z,17.588
2022-12-20T17:15:12.940Z,17.423
2022-12-20T17:30:14.917Z,17.238
2022-12-20T17:45:16.813Z,18.863
2022-12-20T18:00:18.798Z,17.935
2022-12-20T18:15:20.731Z,16.72
2022-12-20T18:30:22.682Z,16.251
2022-12-20T18:45:24.651Z,16.545
2022-12-20T19:00:26.577Z,18.124
2022-12-20T19:15:28.668Z,17.197
2022-12-20T19:30:30.597Z,16.042
2022-12-20T19:45:32.562Z,15.809
2022-12-20T20:00:34.544Z,15.047
2022-12-20T20:15:36.524Z,15.416
2022-12-20T20:30:38.469Z,14.602
2022-12-20T20:45:40.390Z,15.136
2022-12-20T21:00:42.312Z,15.353
2022-12-20T21:15:44.354Z,14.011
2022-12-20T21:30:46.323Z,15.364
2022-12-20T21:45:48.240Z,14.75
2022-12-20T22:00:54.508Z,14.251
2022-12-20T22:15:57.194Z,14.29
2022-12-20T22:30:59.098Z,14.249
2022-12-20T22:46:01.394Z,13.686
2022-12-20T23:01:03.358Z,13.751
2022-12-20T23:16:05.373Z,13.966
2022-12-20T23:31:07.364Z,15.691
2022-12-20T23:46:09.483Z,16.297
